createdAt,value
2022-11-16T00:01:41.172Z,18.05
2022-11-16T00:04:11.922Z,23.70
2022-11-16T00:06:38.792Z,21.23
2022-11-16T00:09:20.830Z,22.65
2022-11-16T00:11:51.326Z,23.15
2022-11-16T00:14:19.601Z,18.73
2022-11-16T00:16:46.733Z,23.08
2022-11-16T00:19:13.545Z,21.77
2022-11-16T00:21:40.602Z,20.25
2022-11-16T00:24:07.884Z,27.63
2022-11-16T00:26:34.525Z,22.70
2022-11-16T00:29:01.238Z,29.27
2022-11-16T00:31:27.870Z,20.27
2022-11-16T00:33:54.497Z,21.30
2022-11-16T00:36:21.177Z,28.58
2022-11-16T00:38:48.248Z,24.45
2022-11-16T00:41:14.936Z,21.73
2022-11-16T00:43:41.886Z,26.98
2022-11-16T00:46:08.941Z,24.25
2022-11-16T00:48:35.739Z,25.63
2022-11-16T00:51:02.536Z,25.48
2022-11-16T00:53:29.188Z,25.00
2022-11-16T00:55:55.757Z,23.80
2022-11-16T00:58:22.561Z,32.28
2022-11-16T01:00:49.318Z,24.38
2022-11-16T01:03:16.306Z,20.05
2022-11-16T01:05:42.989Z,34.22
2022-11-16T01:08:09.629Z,25.95
2022-11-16T01:10:41.204Z,26.77
2022-11-16T01:13:07.887Z,26.05
2022-11-16T01:15:34.553Z,29.02
2022-11-16T01:18:01.134Z,33.78
2022-11-16T01:20:29.609Z,22.80
2022-11-16T01:22:56.948Z,24.10
2022-11-16T01:25:23.663Z,25.40
2022-11-16T01:27:50.225Z,31.73
2022-11-16T01:30:16.911Z,24.35
2022-11-16T01:32:43.539Z,27.77
2022-11-16T01:35:14.431Z,28.20
2022-11-16T01:37:44.333Z,26.13
2022-11-16T01:40:12.863Z,21.40
2022-11-16T01:42:40.596Z,26.63
2022-11-16T01:45:18.974Z,25.20
2022-11-16T01:47:45.871Z,24.70
2022-11-16T01:50:16.516Z,24.67
2022-11-16T01:52:52.483Z,23.75
2022-11-16T01:55:19.891Z,27.38
2022-11-16T01:57:48.021Z,21.30
2022-11-16T02:00:15.638Z,25.38
2022-11-16T02:02:42.671Z,32.45
2022-11-16T02:05:13.240Z,28.92
2022-11-16T02:08:11.432Z,26.27
2022-11-16T02:10:53.866Z,27.67
2022-11-16T02:13:51.658Z,24.45
2022-11-16T02:16:24.686Z,24.10
2022-11-16T02:19:08.212Z,28.38
2022-11-16T02:21:43.438Z,24.02
2022-11-16T02:24:42.305Z,23.02
2022-11-16T02:27:21.580Z,22.88
2022-11-16T02:29:53.217Z,27.20
2022-11-16T02:32:25.301Z,20.35
2022-11-16T02:34:59.646Z,20.58
2022-11-16T02:37:31.537Z,23.70
2022-11-16T02:40:02.649Z,22.67
2022-11-16T02:42:35.774Z,25.55
2022-11-16T02:45:05.714Z,22.42
2022-11-16T02:47:35.438Z,23.23
2022-11-16T02:50:10.201Z,21.75
2022-11-16T02:52:38.585Z,23.50
2022-11-16T02:55:05.729Z,22.60
2022-11-16T02:57:44.751Z,19.30
2022-11-16T03:00:18.565Z,24.52
2022-11-16T03:02:50.437Z,21.08
2022-11-16T03:05:44.360Z,22.70
2022-11-16T03:08:29.982Z,13.93
2022-11-16T03:11:19.731Z,20.05
2022-11-16T03:13:47.309Z,26.60
2022-11-16T03:16:20.280Z,18.27
2022-11-16T03:18:49.817Z,15.25
2022-11-16T03:21:31.714Z,17.63
2022-11-16T03:23:58.512Z,17.17
2022-11-16T03:26:32.043Z,16.23
2022-11-16T03:29:05.861Z,15.35
2022-11-16T03:31:43.907Z,18.63
2022-11-16T03:34:16.209Z,18.90
2022-11-16T03:36:46.426Z,17.55
2022-11-16T03:39:20.458Z,16.83
2022-11-16T03:41:49.156Z,16.52
2022-11-16T03:44:17.360Z,16.05
2022-11-16T03:46:45.574Z,20.92
2022-11-16T03:49:12.545Z,17.65
2022-11-16T03:51:39.472Z,19.90
2022-11-16T03:54:06.179Z,19.50
2022-11-16T03:56:32.762Z,20.38
2022-11-16T03:58:59.295Z,18.90
2022-11-16T04:01:25.983Z,18.88
2022-11-16T04:03:52.622Z,16.67
2022-11-16T04:06:34.673Z,17.25
2022-11-16T04:09:16.476Z,22.63
2022-11-16T04:11:58.478Z,21.42
2022-11-16T04:14:40.799Z,20.40
2022-11-16T04:17:32.816Z,21.83
2022-11-16T04:20:14.880Z,19.05
2022-11-16T04:23:02.577Z,22.15
2022-11-16T04:25:34.589Z,18.73
2022-11-16T04:28:17.718Z,19.45
2022-11-16T04:31:05.898Z,19.77
2022-11-16T04:33:48.211Z,23.73
2022-11-16T04:36:30.228Z,22.05
2022-11-16T04:38:56.794Z,18.63
2022-11-16T04:41:39.220Z,20.58
2022-11-16T04:44:05.937Z,20.85
2022-11-16T04:46:47.944Z,14.82
2022-11-16T04:53:46.319Z,17.48
2022-11-16T05:01:00.559Z,20.70
2022-11-16T05:11:43.468Z,23.77
2022-11-16T05:14:10.847Z,20.02
2022-11-16T05:16:38.158Z,23.00
2022-11-16T05:19:20.297Z,19.27
2022-11-16T05:21:47.125Z,16.73
2022-11-16T05:24:28.998Z,19.60
2022-11-16T05:26:55.634Z,20.48
2022-11-16T05:29:22.289Z,16.48
2022-11-16T05:31:48.885Z,21.38
2022-11-16T05:34:15.468Z,14.90
2022-11-16T05:36:42.173Z,18.50
2022-11-16T05:39:12.052Z,18.00
2022-11-16T05:41:38.690Z,18.73
2022-11-16T05:44:05.533Z,23.75
2022-11-16T05:46:32.324Z,18.45
2022-11-16T05:48:59.068Z,14.95
2022-11-16T05:51:25.664Z,19.42
2022-11-16T05:53:52.380Z,16.77
2022-11-16T05:56:19.551Z,19.15
2022-11-16T05:58:46.586Z,19.52
2022-11-16T06:01:13.242Z,20.00
2022-11-16T06:03:40.014Z,15.70
2022-11-16T06:06:06.944Z,20.40
2022-11-16T06:08:33.989Z,21.73
2022-11-16T06:11:04.769Z,20.45
2022-11-16T06:13:32.847Z,23.05
2022-11-16T06:16:00.556Z,20.25
2022-11-16T06:18:27.380Z,17.88
2022-11-16T06:20:54.101Z,26.48
2022-11-16T06:23:21.046Z,23.10
2022-11-16T06:25:52.426Z,23.45
2022-11-16T06:28:19.083Z,21.25
2022-11-16T06:30:45.684Z,18.67
2022-11-16T06:33:12.374Z,18.77
2022-11-16T06:35:39.041Z,19.95
2022-11-16T06:38:06.135Z,21.27
2022-11-16T06:40:34.069Z,17.80
2022-11-16T06:43:00.972Z,23.92
2022-11-16T06:45:27.611Z,23.52
2022-11-16T06:47:54.362Z,24.38
2022-11-16T06:50:21.097Z,28.42
2022-11-16T06:52:49.125Z,22.30
2022-11-16T06:55:16.710Z,22.77
2022-11-16T06:57:43.363Z,24.63
2022-11-16T07:00:11.457Z,19.13
2022-11-16T07:02:39.088Z,21.60
2022-11-16T07:05:07.282Z,20.60
2022-11-16T07:07:34.051Z,19.23
2022-11-16T07:10:00.777Z,17.60
2022-11-16T07:12:27.376Z,19.42
2022-11-16T07:14:54.050Z,16.45
2022-11-16T07:17:20.695Z,20.20
2022-11-16T07:19:47.327Z,25.45
2022-11-16T07:22:13.966Z,19.35
2022-11-16T07:24:40.572Z,16.67
2022-11-16T07:27:08.336Z,20.48
2022-11-16T07:29:34.977Z,24.95
2022-11-16T07:32:01.728Z,23.45
2022-11-16T07:34:28.375Z,24.90
2022-11-16T07:36:55.036Z,24.83
2022-11-16T07:39:21.914Z,27.00
2022-11-16T07:41:50.451Z,23.98
2022-11-16T07:44:17.129Z,25.15
2022-11-16T07:46:47.109Z,22.73
2022-11-16T07:49:16.909Z,24.35
2022-11-16T07:51:43.880Z,27.80
2022-11-16T07:54:14.449Z,30.65
2022-11-16T07:56:41.428Z,31.88
2022-11-16T07:59:08.825Z,29.85
2022-11-16T08:01:35.636Z,32.40
2022-11-16T08:04:02.763Z,36.17
2022-11-16T08:06:31.452Z,33.53
2022-11-16T08:08:59.280Z,34.88
2022-11-16T08:11:26.522Z,36.55
2022-11-16T08:13:53.325Z,41.42
2022-11-16T08:16:24.572Z,40.40
2022-11-16T08:18:51.299Z,36.42
2022-11-16T08:21:19.186Z,37.80
2022-11-16T08:23:46.253Z,46.58
2022-11-16T08:26:15.901Z,42.45
2022-11-16T08:28:45.028Z,40.45
2022-11-16T08:31:15.016Z,41.47
2022-11-16T08:33:42.100Z,45.78
2022-11-16T08:36:14.263Z,31.13
2022-11-16T08:38:41.117Z,39.38
2022-11-16T08:41:07.923Z,42.17
2022-11-16T08:43:35.874Z,45.38
2022-11-16T08:46:03.287Z,41.85
2022-11-16T08:48:30.006Z,43.65
2022-11-16T08:51:16.927Z,50.90
2022-11-16T08:53:45.354Z,45.40
2022-11-16T08:56:13.729Z,59.95
2022-11-16T08:58:44.223Z,57.10
2022-11-16T09:01:16.503Z,51.13
2022-11-16T09:03:43.427Z,56.38
2022-11-16T09:06:11.712Z,45.75
2022-11-16T09:08:40.547Z,53.63
2022-11-16T09:11:10.001Z,52.47
2022-11-16T09:13:40.096Z,53.15
2022-11-16T09:16:07.100Z,53.33
2022-11-16T09:18:34.263Z,48.47
2022-11-16T09:21:01.208Z,38.60
2022-11-16T09:23:28.295Z,42.65
2022-11-16T09:25:54.993Z,40.40
2022-11-16T09:28:22.391Z,48.58
2022-11-16T09:30:51.208Z,45.22
2022-11-16T09:33:18.367Z,45.53
2022-11-16T09:35:45.472Z,57.30
2022-11-16T09:38:17.482Z,47.03
2022-11-16T09:40:52.073Z,49.97
2022-11-16T09:43:47.021Z,52.38
2022-11-16T09:46:30.172Z,53.40
2022-11-16T09:49:00.340Z,44.50
2022-11-16T09:51:32.629Z,48.95
2022-11-16T09:54:05.510Z,47.55
2022-11-16T09:56:36.862Z,47.60
2022-11-16T09:59:24.911Z,48.60
2022-11-16T10:01:52.580Z,44.53
2022-11-16T10:04:38.516Z,40.72
2022-11-16T10:07:24.567Z,45.60
2022-11-16T10:09:52.123Z,43.10
2022-11-16T10:12:24.744Z,45.35
2022-11-16T10:15:04.597Z,45.92
2022-11-16T10:17:32.230Z,40.53
2022-11-16T10:20:19.291Z,43.28
2022-11-16T10:22:52.927Z,44.42
2022-11-16T10:25:22.755Z,45.50
2022-11-16T10:28:09.478Z,41.30
2022-11-16T10:30:44.656Z,42.92
2022-11-16T10:33:16.681Z,41.25
2022-11-16T10:35:47.872Z,40.28
2022-11-16T10:38:17.764Z,38.08
2022-11-16T10:40:49.932Z,35.47
2022-11-16T10:43:20.010Z,30.10
2022-11-16T10:45:57.983Z,39.00
2022-11-16T10:49:04.466Z,41.25
2022-11-16T10:51:31.114Z,38.33
2022-11-16T10:53:57.901Z,34.55
2022-11-16T10:56:37.298Z,31.88
2022-11-16T10:59:06.857Z,27.45
2022-11-16T11:01:36.369Z,30.27
2022-11-16T11:04:18.369Z,34.65
2022-11-16T11:06:47.879Z,31.77
2022-11-16T11:09:18.646Z,36.70
2022-11-16T11:12:28.349Z,33.35
2022-11-16T11:15:25.940Z,36.33
2022-11-16T11:18:13.147Z,33.88
2022-11-16T11:20:45.190Z,46.17
2022-11-16T11:23:21.953Z,35.05
2022-11-16T11:25:50.659Z,32.38
2022-11-16T11:28:23.355Z,32.00
2022-11-16T11:31:01.722Z,28.73
2022-11-16T11:33:39.627Z,37.13
2022-11-16T11:36:08.722Z,44.47
2022-11-16T11:39:04.215Z,28.90
2022-11-16T11:41:38.898Z,34.28
2022-11-16T11:44:15.759Z,29.55
2022-11-16T11:47:29.021Z,37.53
2022-11-16T11:49:49.956Z,29.75
2022-11-16T11:52:22.519Z,31.75
2022-11-16T11:54:53.279Z,29.13
2022-11-16T11:57:23.111Z,34.45
2022-11-16T11:59:52.971Z,41.35
2022-11-16T12:02:43.886Z,32.17
2022-11-16T12:05:25.928Z,30.70
2022-11-16T12:08:23.075Z,26.98
2022-11-16T12:11:11.171Z,25.55
2022-11-16T12:14:06.695Z,29.52
2022-11-16T12:17:08.450Z,25.83
2022-11-16T12:20:05.914Z,23.25
2022-11-16T12:23:04.405Z,20.10
2022-11-16T12:25:53.751Z,21.67
2022-11-16T12:28:50.837Z,20.30
2022-11-16T12:31:18.756Z,25.23
2022-11-16T12:34:02.729Z,26.27
2022-11-16T12:36:51.656Z,23.48
2022-11-16T12:39:33.693Z,23.60
2022-11-16T12:42:21.085Z,21.50
2022-11-16T12:45:32.029Z,19.58
2022-11-16T12:48:25.520Z,21.70
2022-11-16T12:51:18.961Z,20.23
2022-11-16T12:54:13.197Z,21.70
2022-11-16T12:57:00.734Z,26.27
2022-11-16T12:59:34.562Z,20.75
2022-11-16T13:02:17.758Z,23.67
2022-11-16T13:04:51.036Z,21.35
2022-11-16T13:07:24.976Z,24.02
2022-11-16T13:09:58.915Z,21.10
2022-11-16T13:12:27.778Z,21.67
2022-11-16T13:15:00.168Z,19.75
2022-11-16T13:17:31.123Z,22.88
2022-11-16T13:20:28.161Z,22.63
2022-11-16T13:23:10.138Z,23.23
2022-11-16T13:25:45.957Z,22.73
2022-11-16T13:28:23.243Z,20.05
2022-11-16T13:31:02.373Z,22.38
2022-11-16T13:33:50.601Z,20.65
2022-11-16T13:36:43.775Z,20.95
2022-11-16T13:39:21.469Z,23.13
2022-11-16T13:42:08.176Z,20.98
2022-11-16T13:44:34.997Z,21.95
2022-11-16T13:47:05.907Z,22.17
2022-11-16T13:49:40.949Z,20.42
2022-11-16T13:52:23.244Z,18.52
2022-11-16T13:54:54.443Z,28.33
2022-11-16T13:57:27.279Z,23.27
2022-11-16T14:00:11.981Z,19.80
2022-11-16T14:02:41.251Z,20.45
2022-11-16T14:05:36.611Z,15.75
2022-11-16T14:08:23.157Z,19.17
2022-11-16T14:10:50.790Z,16.55
2022-11-16T14:13:39.965Z,14.93
2022-11-16T14:16:22.580Z,16.50
2022-11-16T14:19:05.377Z,17.80
2022-11-16T14:21:53.330Z,20.73
2022-11-16T14:24:35.345Z,19.52
2022-11-16T14:27:07.736Z,17.85
2022-11-16T14:30:03.671Z,17.70
2022-11-16T14:32:39.624Z,22.73
2022-11-16T14:35:28.709Z,25.33
2022-11-16T14:38:00.885Z,24.38
2022-11-16T14:40:28.203Z,22.67
2022-11-16T14:43:17.581Z,21.20
2022-11-16T14:45:51.756Z,19.23
2022-11-16T14:48:21.118Z,20.85
2022-11-16T14:51:02.394Z,19.98
2022-11-16T14:53:29.863Z,23.75
2022-11-16T14:56:13.446Z,19.75
2022-11-16T14:58:40.504Z,23.88
2022-11-16T15:01:14.729Z,21.95
2022-11-16T15:03:52.277Z,22.60
2022-11-16T15:06:20.292Z,23.52
2022-11-16T15:09:03.723Z,21.42
2022-11-16T15:11:49.186Z,19.40
2022-11-16T15:14:20.116Z,22.58
2022-11-16T15:16:56.393Z,26.17
2022-11-16T15:19:24.133Z,25.92
2022-11-16T15:21:53.991Z,21.50
2022-11-16T15:24:31.055Z,26.67
2022-11-16T15:27:02.813Z,24.90
2022-11-16T15:29:29.566Z,19.20
2022-11-16T15:31:56.210Z,21.25
2022-11-16T15:34:22.967Z,25.13
2022-11-16T15:36:50.177Z,21.25
2022-11-16T15:39:19.876Z,27.00
2022-11-16T15:41:47.349Z,25.27
2022-11-16T15:44:19.045Z,28.77
2022-11-16T15:46:49.256Z,28.20
2022-11-16T15:49:22.233Z,27.67
2022-11-16T15:51:48.944Z,30.25
2022-11-16T15:54:23.914Z,32.00
2022-11-16T15:56:52.901Z,31.55
2022-11-16T15:59:26.452Z,30.67
2022-11-16T16:01:53.359Z,32.67
2022-11-16T16:04:20.237Z,31.35
2022-11-16T16:06:49.379Z,32.08
2022-11-16T16:09:35.992Z,30.60
2022-11-16T16:12:19.559Z,32.05
2022-11-16T16:14:49.090Z,29.90
2022-11-16T16:17:26.030Z,30.55
2022-11-16T16:20:02.477Z,34.25
2022-11-16T16:22:37.477Z,30.77
2022-11-16T16:25:06.865Z,23.92
2022-11-16T16:27:40.004Z,27.75
2022-11-16T16:30:08.637Z,28.15
2022-11-16T16:32:37.844Z,29.40
2022-11-16T16:35:07.450Z,25.20
2022-11-16T16:37:36.051Z,23.98
2022-11-16T16:40:03.494Z,22.00
2022-11-16T16:42:30.161Z,27.45
2022-11-16T16:44:59.596Z,23.98
2022-11-16T16:47:26.277Z,22.88
2022-11-16T16:49:52.893Z,21.02
2022-11-16T16:52:19.585Z,24.10
2022-11-16T16:54:47.300Z,20.77
2022-11-16T16:57:15.895Z,17.25
2022-11-16T16:59:45.664Z,22.65
2022-11-16T17:02:13.263Z,19.33
2022-11-16T17:04:40.439Z,19.80
2022-11-16T17:07:20.239Z,14.52
2022-11-16T17:09:46.973Z,19.52
2022-11-16T17:12:13.651Z,16.40
2022-11-16T17:14:40.238Z,18.30
2022-11-16T17:17:10.372Z,16.15
2022-11-16T17:19:36.986Z,16.98
2022-11-16T17:22:03.739Z,15.38
2022-11-16T17:24:30.689Z,17.67
2022-11-16T17:26:57.349Z,17.52
2022-11-16T17:29:24.419Z,16.95
2022-11-16T17:31:51.085Z,16.58
2022-11-16T17:34:17.975Z,17.33
2022-11-16T17:36:45.044Z,17.10
2022-11-16T17:39:11.957Z,14.55
2022-11-16T17:41:38.604Z,15.45
2022-11-16T17:44:09.291Z,18.13
2022-11-16T17:46:36.181Z,13.65
2022-11-16T17:49:03.033Z,16.58
2022-11-16T17:51:29.990Z,15.32
2022-11-16T17:53:56.623Z,10.55
2022-11-16T17:56:26.906Z,13.52
2022-11-16T17:58:55.160Z,13.85
2022-11-16T18:01:22.982Z,13.38
2022-11-16T18:03:49.668Z,11.35
2022-11-16T18:06:18.920Z,13.15
2022-11-16T18:08:46.379Z,12.55
2022-11-16T18:11:15.115Z,14.45
2022-11-16T18:13:42.390Z,18.40
2022-11-16T18:16:13.417Z,14.15
2022-11-16T18:18:40.702Z,13.18
2022-11-16T18:21:08.722Z,13.50
2022-11-16T18:23:36.764Z,12.82
2022-11-16T18:26:14.390Z,10.10
2022-11-16T18:28:41.404Z,12.68
2022-11-16T18:31:11.057Z,11.90
2022-11-16T18:33:38.492Z,11.93
2022-11-16T18:36:07.412Z,14.20
2022-11-16T18:38:34.748Z,15.52
2022-11-16T18:41:19.730Z,13.05
2022-11-16T18:43:50.389Z,12.25
2022-11-16T18:46:18.952Z,15.30
2022-11-16T18:48:46.861Z,11.93
2022-11-16T18:51:15.878Z,14.20
2022-11-16T18:53:42.938Z,12.88
2022-11-16T18:56:11.881Z,18.70
2022-11-16T18:58:54.867Z,15.05
2022-11-16T19:01:24.823Z,16.05
2022-11-16T19:03:53.209Z,16.08
2022-11-16T19:06:20.777Z,17.33
2022-11-16T19:08:54.045Z,17.55
2022-11-16T19:11:23.369Z,15.93
2022-11-16T19:13:54.872Z,16.13
2022-11-16T19:16:22.288Z,14.23
2022-11-16T19:18:48.930Z,12.82
2022-11-16T19:21:18.643Z,14.57
2022-11-16T19:23:47.775Z,15.43
2022-11-16T19:26:16.308Z,16.95
2022-11-16T19:28:45.359Z,17.10
2022-11-16T19:31:29.120Z,17.52
2022-11-16T19:34:00.807Z,14.82
2022-11-16T19:36:29.144Z,16.73
2022-11-16T19:38:56.308Z,14.27
2022-11-16T19:41:24.080Z,16.20
2022-11-16T19:43:57.016Z,14.57
2022-11-16T19:46:24.880Z,15.60
2022-11-16T19:48:52.310Z,20.25
2022-11-16T19:51:21.433Z,18.33
2022-11-16T19:53:48.789Z,16.08
2022-11-16T19:56:17.663Z,13.18
2022-11-16T19:58:44.986Z,17.58
2022-11-16T20:01:13.365Z,19.92
2022-11-16T20:03:41.914Z,16.27
2022-11-16T20:06:08.662Z,16.85
2022-11-16T20:08:36.327Z,16.20
2022-11-16T20:11:11.760Z,16.70
2022-11-16T20:13:38.657Z,19.70
2022-11-16T20:16:07.531Z,16.63
2022-11-16T20:18:34.607Z,17.73
2022-11-16T20:21:02.616Z,22.45
2022-11-16T20:23:29.285Z,20.85
2022-11-16T20:25:55.922Z,20.42
2022-11-16T20:28:22.807Z,22.98
2022-11-16T20:30:49.406Z,19.90
2022-11-16T20:33:16.067Z,17.65
2022-11-16T20:35:42.690Z,17.95
2022-11-16T20:38:09.366Z,15.70
2022-11-16T20:40:36.041Z,13.90
2022-11-16T20:43:02.798Z,13.15
2022-11-16T20:45:33.292Z,16.75
2022-11-16T20:48:00.227Z,15.65
2022-11-16T20:50:27.345Z,17.35
2022-11-16T20:52:53.986Z,16.40
2022-11-16T20:55:21.011Z,17.10
2022-11-16T20:57:47.644Z,14.45
2022-11-16T21:00:14.919Z,16.13
2022-11-16T21:02:41.549Z,17.85
2022-11-16T21:05:08.566Z,19.25
2022-11-16T21:07:35.518Z,16.63
2022-11-16T21:10:17.527Z,17.73
2022-11-16T21:12:59.535Z,20.83
2022-11-16T21:15:26.167Z,15.57
2022-11-16T21:17:56.002Z,37.10
2022-11-16T21:20:29.701Z,16.85
2022-11-16T21:22:56.372Z,21.70
2022-11-16T21:25:23.057Z,20.52
2022-11-16T21:27:49.706Z,17.23
2022-11-16T21:30:16.714Z,16.20
2022-11-16T21:32:43.419Z,12.48
2022-11-16T21:35:10.137Z,15.02
2022-11-16T21:37:36.800Z,13.10
2022-11-16T21:40:03.678Z,17.67
2022-11-16T21:42:30.874Z,12.55
2022-11-16T21:45:00.728Z,12.35
2022-11-16T21:47:27.411Z,13.75
2022-11-16T21:50:24.825Z,13.55
2022-11-16T21:52:40.726Z,15.07
2022-11-16T21:55:07.732Z,13.48
2022-11-16T21:57:34.400Z,15.95
2022-11-16T22:00:01.198Z,13.80
2022-11-16T22:02:27.918Z,13.68
2022-11-16T22:05:09.927Z,14.15
2022-11-16T22:07:37.722Z,14.25
2022-11-16T22:10:10.317Z,15.93
2022-11-16T22:12:37.746Z,19.45
2022-11-16T22:15:06.106Z,15.90
2022-11-16T22:17:33.406Z,16.75
2022-11-16T22:20:00.051Z,14.75
2022-11-16T22:22:26.878Z,13.60
2022-11-16T22:24:53.748Z,11.50
2022-11-16T22:27:20.495Z,18.85
2022-11-16T22:29:47.242Z,17.50
2022-11-16T22:32:16.221Z,14.07
2022-11-16T22:34:43.074Z,15.95
2022-11-16T22:37:09.766Z,14.27
2022-11-16T22:39:37.748Z,15.65
2022-11-16T22:42:04.883Z,15.50
2022-11-16T22:44:31.586Z,17.35
2022-11-16T22:46:58.242Z,13.45
2022-11-16T22:49:25.104Z,14.60
2022-11-16T22:51:51.816Z,16.27
2022-11-16T22:54:18.555Z,15.18
2022-11-16T22:56:46.345Z,20.10
2022-11-16T22:59:13.012Z,15.18
2022-11-16T23:01:39.707Z,15.73
2022-11-16T23:04:06.363Z,17.30
2022-11-16T23:06:33.036Z,19.17
2022-11-16T23:08:59.671Z,18.50
2022-11-16T23:11:41.993Z,17.13
2022-11-16T23:14:27.630Z,18.73
2022-11-16T23:16:54.270Z,19.17
2022-11-16T23:19:37.398Z,19.02
2022-11-16T23:22:20.749Z,19.20
2022-11-16T23:25:02.776Z,16.35
2022-11-16T23:27:34.290Z,18.15
2022-11-16T23:30:09.261Z,22.60
2022-11-16T23:32:39.139Z,18.10
2022-11-16T23:35:06.186Z,15.52
2022-11-16T23:37:32.826Z,18.20
2022-11-16T23:39:59.491Z,18.80
2022-11-16T23:42:41.340Z,23.25
2022-11-16T23:45:08.334Z,20.52
2022-11-16T23:47:34.991Z,18.30
2022-11-16T23:50:01.876Z,19.40
2022-11-16T23:52:28.542Z,18.90
2022-11-16T23:54:55.154Z,17.20
2022-11-16T23:57:21.740Z,17.52
2022-11-16T23:59:48.357Z,13.82
